Aérodrome :
LOGIN :

S'inscrire | Disclaimer

   EN    FR    IT 

 










Légende :    VFR   VFR Marginal   IFR   IFR Intensif   IFR Très Intensif
Visi : 
Plafond : 
>= 8 km
>= 3000ft
5 à 8 km
1000 à 3000 ft
1500m à 5 km
500 à 1000 ft
800 à 1500m
200 à 500 ft
< 800m
< 200 ft
Symboles :   Orages  Brouillard  Fortes neiges  Fortes précipitations  Vent > 20 kt
SIGMETs :   Divers  Orages  Givrage  Turbulence  Onde Orograph.  Cendres Volcan.






- Altitude de l'aérodrome : 939 ft


LKKB - Kbely Air Base

DERNIER METAR :
  • 052130Z 23006KT CAVOK 19/15 Q1013 NOSIG

METARs EXPIRÉS :
  • 052100Z 22007KT CAVOK 20/15 Q1013 NOSIG
  • 052030Z 25007KT CAVOK 22/16 Q1013 NOSIG
  • 052000Z 23009KT CAVOK 22/16 Q1013 NOSIG
  • 051930Z 22010KT 9999 FEW049 24/16 Q1012 NOSIG
  • 051900Z 23012KT CAVOK 24/16 Q1012 NOSIG

TAF TAF LKKB
Valide du 05 à 18h jusqu'au 06 à 18h UTC


051700Z 0518/0618 23010KT CAVOK
TEMPO 0518/0520 23016KT
BECMG 0604/0606 BKN035
TEMPO 0606/0609 7000 SHRA BKN020
TEMPO 0607/0618 23016G26KT
BECMG 0612/0614 CAVOK



MET'MAP, la Météo Aéronautique d'un coup d'oeil ! - Copyright ORBIFLY Décembre 2007 - Disclaimer

ORBIFLY MET'MAP TEAM :

Programmation & Développement : Alexandra Zaïnal
Sur une idée originale de : Baudouin d'Aumeries
Assistance à la programmation : Marc-Olivier Méhu
Soutien technique & logistique : Manuel Goepfert

Contact : metmap@orbifly.com




SOURCES & CREDITS :

   NOAA